createdAt,value
2018-10-07T00:00:25.863Z,0.00
2018-10-07T00:01:26.140Z,0.00
2018-10-07T00:02:26.428Z,0.00
2018-10-07T00:03:26.681Z,0.00
2018-10-07T00:04:26.953Z,0.00
2018-10-07T00:05:27.257Z,0.00
2018-10-07T00:06:27.628Z,0.00
2018-10-07T00:07:28.189Z,0.00
2018-10-07T00:08:27.960Z,0.00
2018-10-07T00:09:28.231Z,0.00
2018-10-07T00:10:28.638Z,0.00
2018-10-07T00:11:29.012Z,0.00
2018-10-07T00:12:29.308Z,0.00
2018-10-07T00:13:29.750Z,0.00
2018-10-07T00:14:30.049Z,0.00
2018-10-07T00:15:30.344Z,0.00
2018-10-07T00:16:30.637Z,0.00
2018-10-07T00:17:31.244Z,0.00
2018-10-07T00:18:31.078Z,0.00
2018-10-07T00:19:31.358Z,0.00
2018-10-07T00:20:31.655Z,0.00
2018-10-07T00:21:31.805Z,0.00
2018-10-07T00:22:32.150Z,0.00
2018-10-07T00:23:32.450Z,0.00
2018-10-07T00:24:32.819Z,0.00
2018-10-07T00:25:33.288Z,0.00
2018-10-07T00:26:41.370Z,0.00
2018-10-07T00:27:33.973Z,0.00
2018-10-07T00:28:34.099Z,0.00
2018-10-07T00:29:34.269Z,0.00
2018-10-07T00:30:34.546Z,0.00
2018-10-07T00:31:34.667Z,0.00
2018-10-07T00:32:34.946Z,0.00
2018-10-07T00:33:35.087Z,0.00
2018-10-07T00:34:35.245Z,0.00
2018-10-07T00:35:35.398Z,0.00
2018-10-07T00:36:35.583Z,0.00
2018-10-07T00:37:35.625Z,0.00
2018-10-07T00:38:35.775Z,0.00
2018-10-07T00:39:35.858Z,0.00
2018-10-07T00:40:35.991Z,0.00
2018-10-07T00:41:36.149Z,0.00
2018-10-07T00:42:36.230Z,0.00
2018-10-07T00:43:36.299Z,0.00
2018-10-07T00:44:36.381Z,0.00
2018-10-07T00:45:36.457Z,0.00
2018-10-07T00:46:36.601Z,0.00
2018-10-07T00:47:36.707Z,0.00
2018-10-07T00:48:36.759Z,0.00
2018-10-07T00:49:36.910Z,0.00
2018-10-07T00:50:37.067Z,0.00
2018-10-07T00:51:37.183Z,0.00
2018-10-07T00:52:37.297Z,0.00
2018-10-07T00:53:37.396Z,0.00
2018-10-07T00:54:37.455Z,0.00
2018-10-07T00:55:37.544Z,0.00
2018-10-07T00:56:37.627Z,0.00
2018-10-07T00:57:37.704Z,0.00
2018-10-07T00:58:37.789Z,0.00
2018-10-07T00:59:37.873Z,0.00
2018-10-07T01:00:37.980Z,0.00
2018-10-07T01:01:38.064Z,0.00
2018-10-07T01:02:38.177Z,0.00
2018-10-07T01:03:38.278Z,0.00
2018-10-07T01:04:38.429Z,0.00
2018-10-07T01:05:38.497Z,0.00
2018-10-07T01:06:38.385Z,0.00
2018-10-07T01:07:38.974Z,0.00
2018-10-07T01:08:38.992Z,0.00
2018-10-07T01:09:39.012Z,0.00
2018-10-07T01:10:39.104Z,0.00
2018-10-07T01:11:39.311Z,0.00
2018-10-07T01:12:39.287Z,0.00
2018-10-07T01:13:39.642Z,0.00
2018-10-07T01:14:39.910Z,0.00
2018-10-07T01:15:40.432Z,0.00
2018-10-07T01:16:40.240Z,0.00
2018-10-07T01:17:40.827Z,0.00
2018-10-07T01:18:40.607Z,0.00
2018-10-07T01:19:40.927Z,0.00
2018-10-07T01:20:41.211Z,0.00
2018-10-07T01:21:41.499Z,0.00
2018-10-07T01:22:41.860Z,0.00
2018-10-07T01:23:42.377Z,0.00
2018-10-07T01:24:42.177Z,0.00
2018-10-07T01:25:42.577Z,0.00
2018-10-07T01:26:43.066Z,0.00
2018-10-07T01:27:43.676Z,0.00
2018-10-07T01:28:43.458Z,0.00
2018-10-07T01:29:43.745Z,0.00
2018-10-07T01:30:44.085Z,0.00
2018-10-07T01:31:44.399Z,0.00
2018-10-07T01:32:44.745Z,0.00
2018-10-07T01:33:45.019Z,0.00
2018-10-07T01:34:45.326Z,0.00
2018-10-07T01:35:45.597Z,0.00
2018-10-07T01:36:45.896Z,0.00
2018-10-07T01:37:46.280Z,0.00
2018-10-07T01:38:46.636Z,0.00
2018-10-07T01:39:46.937Z,0.00
2018-10-07T01:40:47.233Z,0.00
2018-10-07T01:41:47.571Z,0.00
2018-10-07T01:42:47.891Z,0.00
2018-10-07T01:43:48.508Z,0.00
2018-10-07T01:44:48.752Z,0.00
2018-10-07T01:46:48.884Z,0.00
2018-10-07T01:47:48.971Z,0.00
2018-10-07T01:48:49.112Z,0.00
2018-10-07T01:49:49.244Z,0.00
2018-10-07T01:50:49.387Z,0.00
2018-10-07T01:51:49.591Z,0.00
2018-10-07T01:52:49.804Z,0.00
2018-10-07T01:53:49.941Z,0.00
2018-10-07T01:54:50.134Z,0.00
2018-10-07T01:55:50.295Z,0.00
2018-10-07T01:56:50.493Z,0.00
2018-10-07T01:57:50.660Z,0.00
2018-10-07T01:58:50.848Z,0.00
2018-10-07T01:59:50.991Z,0.07
2018-10-07T02:00:51.142Z,0.44
2018-10-07T02:01:51.221Z,0.45
2018-10-07T02:02:51.355Z,0.69
2018-10-07T02:03:51.474Z,0.65
2018-10-07T02:04:51.599Z,0.21
2018-10-07T02:05:51.710Z,0.08
2018-10-07T02:06:51.827Z,0.15
2018-10-07T02:07:51.931Z,0.07
2018-10-07T02:08:52.048Z,0.06
2018-10-07T02:09:52.153Z,0.01
2018-10-07T02:10:52.260Z,0.00
2018-10-07T02:11:52.412Z,0.00
2018-10-07T02:12:52.519Z,0.00
2018-10-07T02:13:52.663Z,0.00
2018-10-07T02:14:52.669Z,0.00
2018-10-07T02:15:52.733Z,0.00
2018-10-07T02:16:52.809Z,0.00
2018-10-07T02:17:52.898Z,0.00
2018-10-07T02:18:52.986Z,0.00
2018-10-07T02:19:53.054Z,0.00
2018-10-07T02:20:53.137Z,0.00
2018-10-07T02:21:53.215Z,0.00
2018-10-07T02:22:53.306Z,0.00
2018-10-07T02:23:53.400Z,0.00
2018-10-07T02:24:53.496Z,0.00
2018-10-07T02:25:53.577Z,0.00
2018-10-07T02:26:53.398Z,0.00
2018-10-07T02:27:54.020Z,0.00
2018-10-07T02:28:54.127Z,0.04
2018-10-07T02:29:54.213Z,0.52
2018-10-07T02:30:54.471Z,0.59
2018-10-07T02:31:54.496Z,0.51
2018-10-07T02:32:54.742Z,0.44
2018-10-07T02:33:54.731Z,0.20
2018-10-07T02:34:55.018Z,0.00
2018-10-07T02:35:55.508Z,0.14
2018-10-07T02:36:55.781Z,0.01
2018-10-07T02:37:56.321Z,0.06
2018-10-07T02:38:56.144Z,0.24
2018-10-07T02:39:56.635Z,0.00
2018-10-07T02:40:56.915Z,0.00
2018-10-07T02:41:57.198Z,0.00
2018-10-07T02:42:57.463Z,0.00
2018-10-07T02:43:58.031Z,0.00
2018-10-07T02:44:57.808Z,0.00
2018-10-07T02:45:58.092Z,0.00
2018-10-07T02:46:58.415Z,0.00
2018-10-07T02:47:59.142Z,0.00
2018-10-07T02:48:58.911Z,0.00
2018-10-07T02:49:59.425Z,0.00
2018-10-07T02:50:59.482Z,0.00
2018-10-07T02:51:59.752Z,0.00
2018-10-07T02:53:00.395Z,0.00
2018-10-07T02:54:00.270Z,0.00
2018-10-07T02:55:00.747Z,0.00
2018-10-07T02:56:01.136Z,0.00
2018-10-07T02:57:01.689Z,0.00
2018-10-07T02:58:01.801Z,0.00
2018-10-07T02:59:01.978Z,0.08
2018-10-07T03:00:02.513Z,0.07
2018-10-07T03:01:02.606Z,0.00
2018-10-07T03:02:02.344Z,0.00
2018-10-07T03:03:03.029Z,0.00
2018-10-07T03:04:03.132Z,0.00
2018-10-07T03:05:03.119Z,0.07
2018-10-07T03:06:03.910Z,0.00
2018-10-07T03:07:04.207Z,0.00
2018-10-07T03:08:04.511Z,0.18
2018-10-07T03:09:05.078Z,0.01
2018-10-07T03:10:05.413Z,0.00
2018-10-07T03:11:05.683Z,0.00
2018-10-07T03:12:05.861Z,0.00
2018-10-07T03:13:06.110Z,0.00
2018-10-07T03:14:06.210Z,0.06
2018-10-07T03:15:06.360Z,0.38
2018-10-07T03:16:06.506Z,0.11
2018-10-07T03:17:06.638Z,0.00
2018-10-07T03:18:06.802Z,0.00
2018-10-07T03:19:06.865Z,0.00
2018-10-07T03:20:06.799Z,0.00
2018-10-07T03:21:07.401Z,0.32
2018-10-07T03:22:07.471Z,0.61
2018-10-07T03:23:07.543Z,0.48
2018-10-07T03:24:07.472Z,0.41
2018-10-07T03:25:08.047Z,0.46
2018-10-07T03:26:07.879Z,0.13
2018-10-07T03:27:08.474Z,0.06
2018-10-07T03:28:08.533Z,0.38
2018-10-07T03:29:08.604Z,0.37
2018-10-07T03:30:08.701Z,0.75
2018-10-07T03:31:08.496Z,0.99
2018-10-07T03:32:09.147Z,1.15
2018-10-07T03:33:09.177Z,0.55
2018-10-07T03:34:09.498Z,1.01
2018-10-07T03:35:10.033Z,0.41
2018-10-07T03:36:10.606Z,0.21
2018-10-07T03:37:10.794Z,0.52
2018-10-07T03:38:10.851Z,0.23
2018-10-07T03:39:10.942Z,0.38
2018-10-07T03:40:11.030Z,1.28
2018-10-07T03:41:11.145Z,1.06
2018-10-07T03:42:10.936Z,0.89
2018-10-07T03:43:11.384Z,0.32
2018-10-07T03:44:11.308Z,1.01
2018-10-07T03:45:11.677Z,0.98
2018-10-07T03:46:12.073Z,0.11
2018-10-07T03:47:12.352Z,0.00
2018-10-07T03:48:12.973Z,0.25
2018-10-07T03:49:12.990Z,0.14
2018-10-07T03:50:12.790Z,0.00
2018-10-07T03:51:13.209Z,0.20
2018-10-07T03:52:13.182Z,0.86
2018-10-07T03:53:13.513Z,0.73
2018-10-07T03:54:13.854Z,0.28
2018-10-07T03:55:14.456Z,0.04
2018-10-07T03:56:14.214Z,0.25
2018-10-07T03:57:15.048Z,0.79
2018-10-07T03:58:18.502Z,0.70
2018-10-07T03:59:15.127Z,0.55
2018-10-07T04:00:15.108Z,0.20
2018-10-07T04:01:15.503Z,1.14
2018-10-07T04:02:15.840Z,1.13
2018-10-07T04:03:15.599Z,0.41
2018-10-07T04:04:16.055Z,0.21
2018-10-07T04:05:16.643Z,0.06
2018-10-07T04:06:16.417Z,0.01
2018-10-07T04:07:16.783Z,0.01
2018-10-07T04:08:17.106Z,0.86
2018-10-07T04:09:17.367Z,0.56
2018-10-07T04:10:17.932Z,0.00
2018-10-07T04:11:18.281Z,0.00
2018-10-07T04:12:18.293Z,0.00
2018-10-07T04:13:18.698Z,0.34
2018-10-07T04:14:19.014Z,0.01
2018-10-07T04:15:19.233Z,0.66
2018-10-07T04:16:19.592Z,0.63
2018-10-07T04:17:19.775Z,0.20
2018-10-07T04:18:20.038Z,0.00
2018-10-07T04:19:20.398Z,0.00
2018-10-07T04:20:23.287Z,0.00
2018-10-07T04:21:20.745Z,0.00
2018-10-07T04:22:20.908Z,0.08
2018-10-07T04:23:21.059Z,0.07
2018-10-07T04:24:21.234Z,0.03
2018-10-07T04:25:21.374Z,0.44
2018-10-07T04:26:21.867Z,0.23
2018-10-07T04:27:21.533Z,0.76
2018-10-07T04:28:21.624Z,1.14
2018-10-07T04:29:21.949Z,0.69
2018-10-07T04:30:21.998Z,0.72
2018-10-07T04:31:22.114Z,0.04
2018-10-07T04:32:22.505Z,0.22
2018-10-07T04:33:22.574Z,0.61
2018-10-07T04:34:22.629Z,0.25
2018-10-07T04:35:22.767Z,0.66
2018-10-07T04:36:22.853Z,0.08
2018-10-07T04:37:23.051Z,0.20
2018-10-07T04:38:23.126Z,0.58
2018-10-07T04:39:23.229Z,0.55
2018-10-07T04:40:23.314Z,0.30
2018-10-07T04:41:23.389Z,0.42
2018-10-07T04:42:23.475Z,0.00
2018-10-07T04:43:23.724Z,0.00
2018-10-07T04:44:23.817Z,0.00
2018-10-07T04:45:23.656Z,0.08
2018-10-07T04:46:24.582Z,0.45
2018-10-07T04:47:24.778Z,0.32
2018-10-07T04:48:24.705Z,0.37
2018-10-07T04:49:24.992Z,0.06
2018-10-07T04:50:25.274Z,0.34
2018-10-07T04:51:25.792Z,0.70
2018-10-07T04:52:25.703Z,0.38
2018-10-07T04:53:25.698Z,0.01
2018-10-07T04:54:26.493Z,0.00
2018-10-07T04:55:26.528Z,0.00
2018-10-07T04:56:26.771Z,0.00
2018-10-07T04:57:27.106Z,0.00
2018-10-07T04:58:27.049Z,0.18
2018-10-07T04:59:30.338Z,0.00
2018-10-07T05:00:27.686Z,0.00
2018-10-07T05:02:28.213Z,0.03
2018-10-07T05:03:28.677Z,0.04
2018-10-07T05:04:28.769Z,0.13
2018-10-07T05:05:29.253Z,0.00
2018-10-07T05:06:29.576Z,0.00
2018-10-07T05:07:29.457Z,0.00
2018-10-07T05:08:29.754Z,0.00
2018-10-07T05:09:30.271Z,0.00
2018-10-07T05:10:30.284Z,0.00
2018-10-07T05:11:30.589Z,0.00
2018-10-07T05:12:31.110Z,0.00
2018-10-07T05:13:34.257Z,0.27
2018-10-07T05:14:31.742Z,0.95
2018-10-07T05:16:35.645Z,0.83
2018-10-07T05:17:32.319Z,0.52
2018-10-07T05:18:32.690Z,0.31
2018-10-07T05:19:33.095Z,0.00
2018-10-07T05:20:33.737Z,0.00
2018-10-07T05:21:33.834Z,0.00
2018-10-07T05:22:33.929Z,0.00
2018-10-07T05:23:34.056Z,0.00
2018-10-07T05:24:34.175Z,0.00
2018-10-07T05:25:34.375Z,0.00
2018-10-07T05:26:34.531Z,0.00
2018-10-07T05:27:34.702Z,0.00
2018-10-07T05:28:34.842Z,0.00
2018-10-07T05:29:35.010Z,0.00
2018-10-07T05:30:35.137Z,0.10
2018-10-07T05:31:35.409Z,0.00
2018-10-07T05:32:35.560Z,0.00
2018-10-07T05:33:35.805Z,0.00
2018-10-07T05:34:35.825Z,0.00
2018-10-07T05:35:35.984Z,0.00
2018-10-07T05:36:36.123Z,0.00
2018-10-07T05:37:36.213Z,0.00
2018-10-07T05:38:36.265Z,0.00
2018-10-07T05:39:36.377Z,0.41
2018-10-07T05:40:36.464Z,0.79
2018-10-07T05:41:36.543Z,0.48
2018-10-07T05:42:36.645Z,0.38
2018-10-07T05:43:36.685Z,0.01
2018-10-07T05:44:36.974Z,0.54
2018-10-07T05:45:36.857Z,1.21
2018-10-07T05:46:36.984Z,1.11
2018-10-07T05:47:37.083Z,0.93
2018-10-07T05:48:37.100Z,0.96
2018-10-07T05:49:37.213Z,0.56
2018-10-07T05:50:37.344Z,0.03
2018-10-07T05:51:37.443Z,0.00
2018-10-07T05:52:37.507Z,0.00
2018-10-07T05:53:37.579Z,0.00
2018-10-07T05:54:37.666Z,0.00
2018-10-07T05:55:37.762Z,0.00
2018-10-07T05:56:37.837Z,0.00
2018-10-07T05:57:37.917Z,0.00
2018-10-07T05:58:37.994Z,0.00
2018-10-07T05:59:38.106Z,0.00
2018-10-07T06:00:38.229Z,0.00
2018-10-07T06:01:38.355Z,0.00
2018-10-07T06:02:38.419Z,0.00
2018-10-07T06:03:38.642Z,0.00
2018-10-07T06:04:38.862Z,0.00
2018-10-07T06:05:38.852Z,0.00
2018-10-07T06:06:38.854Z,0.00
2018-10-07T06:07:39.412Z,0.00
2018-10-07T06:08:39.419Z,0.00
2018-10-07T06:09:39.628Z,0.00
2018-10-07T06:10:39.387Z,0.00
2018-10-07T06:11:39.748Z,0.00
2018-10-07T06:12:40.039Z,0.00
2018-10-07T06:13:40.467Z,0.00
2018-10-07T06:14:41.006Z,0.22
2018-10-07T06:15:41.184Z,0.17
2018-10-07T06:16:41.418Z,0.37
2018-10-07T06:17:41.335Z,0.51
2018-10-07T06:18:41.662Z,0.10
2018-10-07T06:19:42.128Z,0.18
2018-10-07T06:20:42.417Z,0.99
2018-10-07T12:22:07.301Z,15.83
2018-10-07T12:23:07.085Z,3.56
2018-10-07T12:24:07.244Z,5.27
2018-10-07T12:25:10.164Z,4.39
2018-10-07T12:26:07.738Z,4.60
2018-10-07T12:27:07.854Z,4.14
2018-10-07T12:28:08.308Z,4.72
2018-10-07T12:29:08.620Z,4.69
2018-10-07T12:30:09.105Z,5.76
2018-10-07T12:31:08.935Z,2.38
2018-10-07T12:32:09.652Z,6.29
2018-10-07T12:33:09.665Z,5.98
2018-10-07T12:34:10.562Z,8.10
2018-10-07T12:35:10.346Z,5.59
2018-10-07T12:36:10.132Z,5.57
2018-10-07T12:37:11.284Z,6.88
2018-10-07T12:38:10.650Z,5.84
2018-10-07T12:39:11.009Z,6.00
2018-10-07T12:40:11.453Z,5.93
2018-10-07T12:41:11.973Z,8.29
2018-10-07T12:42:12.277Z,4.87
2018-10-07T12:43:12.660Z,6.45
2018-10-07T12:44:13.679Z,3.62
2018-10-07T12:45:13.544Z,5.08
2018-10-07T12:46:13.414Z,5.87
2018-10-07T12:47:13.742Z,4.54
2018-10-07T12:48:14.016Z,4.52
2018-10-07T12:49:14.491Z,3.02
2018-10-07T12:50:15.116Z,3.36
2018-10-07T12:51:14.903Z,5.24
2018-10-07T12:53:15.745Z,6.73
2018-10-07T12:54:15.721Z,7.79
2018-10-07T12:55:16.275Z,4.65
2018-10-07T12:56:16.250Z,3.95
2018-10-07T12:57:16.539Z,4.00
2018-10-07T12:58:16.844Z,2.74
2018-10-07T12:59:17.140Z,6.02
2018-10-07T13:00:17.816Z,3.31
2018-10-07T13:01:17.595Z,5.83
2018-10-07T13:02:17.901Z,4.47
2018-10-07T13:03:18.493Z,4.49
2018-10-07T13:04:18.602Z,2.83
2018-10-07T13:05:18.822Z,5.57
2018-10-07T13:06:18.964Z,4.52
2018-10-07T13:07:19.109Z,7.24
2018-10-07T13:08:19.250Z,4.57
2018-10-07T13:09:19.458Z,4.13
2018-10-07T13:10:19.576Z,3.29
2018-10-07T13:11:19.697Z,5.47
2018-10-07T13:12:19.839Z,4.95
2018-10-07T13:13:20.029Z,2.38
2018-10-07T13:14:20.240Z,3.49
2018-10-07T13:15:20.423Z,3.66
2018-10-07T13:16:20.591Z,2.49
2018-10-07T13:17:20.766Z,4.03
2018-10-07T13:18:20.898Z,6.45
2018-10-07T13:19:21.240Z,4.50
2018-10-07T13:20:21.217Z,4.70
2018-10-07T13:21:21.273Z,5.56
2018-10-07T13:22:21.400Z,5.55
2018-10-07T13:23:21.496Z,4.42
2018-10-07T13:24:21.700Z,7.33
2018-10-07T13:25:21.791Z,5.13
2018-10-07T13:27:21.884Z,3.81
2018-10-07T13:28:22.027Z,4.09
2018-10-07T13:29:22.138Z,5.54
2018-10-07T13:30:22.259Z,5.53
2018-10-07T13:31:22.326Z,5.92
2018-10-07T13:32:22.411Z,8.50
2018-10-07T13:33:22.486Z,7.38
2018-10-07T13:34:22.551Z,5.66
2018-10-07T13:35:22.666Z,4.31
2018-10-07T13:36:22.775Z,3.55
2018-10-07T13:37:22.845Z,4.11
2018-10-07T13:38:22.937Z,3.77
2018-10-07T13:39:23.248Z,4.13
2018-10-07T13:40:23.230Z,5.16
2018-10-07T13:41:23.340Z,5.50
2018-10-07T13:42:23.443Z,5.37
2018-10-07T13:43:23.515Z,5.66
2018-10-07T13:44:23.789Z,3.88
2018-10-07T13:45:24.679Z,2.87
2018-10-07T13:46:24.519Z,3.48
2018-10-07T13:47:24.682Z,4.82
2018-10-07T13:48:24.997Z,3.50
2018-10-07T13:49:25.254Z,4.35
2018-10-07T13:50:25.564Z,4.16
2018-10-07T13:51:25.904Z,3.82
2018-10-07T13:52:26.223Z,5.78
2018-10-07T13:53:26.607Z,6.23
2018-10-07T13:54:26.836Z,4.18
2018-10-07T13:55:27.124Z,4.48
2018-10-07T13:56:27.382Z,4.13
2018-10-07T13:57:27.883Z,4.00
2018-10-07T13:58:28.178Z,7.08
2018-10-07T13:59:28.468Z,6.26
2018-10-07T14:00:32.290Z,6.07
2018-10-07T14:01:29.212Z,4.85
2018-10-07T14:02:29.503Z,5.38
2018-10-07T14:03:29.889Z,3.43
2018-10-07T14:04:30.088Z,5.62
2018-10-07T14:05:30.452Z,3.47
2018-10-07T14:06:30.725Z,4.99
2018-10-07T14:07:30.996Z,4.90
2018-10-07T14:08:31.271Z,3.78
2018-10-07T14:09:31.545Z,5.84
2018-10-07T14:10:31.974Z,4.61
2018-10-07T14:11:32.386Z,3.97
2018-10-07T14:12:32.639Z,4.96
2018-10-07T14:13:33.189Z,5.24
2018-10-07T14:14:33.161Z,4.91
2018-10-07T14:15:33.752Z,4.91
2018-10-07T14:16:33.931Z,7.23
2018-10-07T14:17:34.086Z,4.06
2018-10-07T14:18:34.260Z,4.40
2018-10-07T14:19:34.397Z,3.23
2018-10-07T14:20:34.627Z,4.06
2018-10-07T14:21:34.824Z,5.23
2018-10-07T14:22:35.085Z,5.42
2018-10-07T14:23:35.290Z,6.35
2018-10-07T14:24:35.543Z,6.53
2018-10-07T14:25:35.707Z,6.56
2018-10-07T14:26:35.894Z,4.49
2018-10-07T14:27:36.049Z,2.78
2018-10-07T14:28:36.255Z,3.46
2018-10-07T14:29:36.357Z,3.42
2018-10-07T14:30:36.476Z,5.17
2018-10-07T14:31:36.543Z,5.71
2018-10-07T14:32:36.666Z,4.86
2018-10-07T14:33:36.775Z,5.62
2018-10-07T14:34:36.912Z,2.38
2018-10-07T14:35:36.705Z,5.45
2018-10-07T14:36:37.299Z,6.43
2018-10-07T14:37:37.558Z,6.31
2018-10-07T14:38:37.644Z,4.49
2018-10-07T14:39:37.710Z,4.93
2018-10-07T14:40:37.777Z,3.41
2018-10-07T14:41:37.870Z,3.01
2018-10-07T14:42:37.944Z,5.12
2018-10-07T14:43:38.023Z,4.30
2018-10-07T14:44:38.108Z,5.91
2018-10-07T14:45:38.178Z,7.13
2018-10-07T14:46:38.305Z,6.33
2018-10-07T14:47:38.373Z,4.66
2018-10-07T14:48:38.500Z,6.50
2018-10-07T14:49:38.614Z,4.80
2018-10-07T14:50:38.712Z,5.11
2018-10-07T14:51:38.848Z,3.20
2018-10-07T14:52:38.873Z,3.56
2018-10-07T14:53:38.989Z,4.50
2018-10-07T14:54:39.080Z,3.98
2018-10-07T14:55:39.390Z,4.21
2018-10-07T14:56:39.453Z,5.15
2018-10-07T14:57:39.573Z,4.07
2018-10-07T14:58:39.621Z,4.93
2018-10-07T14:59:40.005Z,4.19
2018-10-07T15:00:40.331Z,5.19
2018-10-07T15:01:40.594Z,3.24
2018-10-07T15:02:41.034Z,4.52
2018-10-07T15:03:41.308Z,5.86
2018-10-07T15:04:41.587Z,2.84
2018-10-07T15:05:41.875Z,3.35
2018-10-07T15:06:42.356Z,5.59
2018-10-07T15:07:42.655Z,3.41
2018-10-07T15:08:43.066Z,2.65
2018-10-07T15:09:43.412Z,4.58
2018-10-07T15:10:43.689Z,4.59
2018-10-07T15:11:44.280Z,5.60
2018-10-07T15:12:44.081Z,3.98
2018-10-07T15:13:44.497Z,4.85
2018-10-07T15:14:45.025Z,5.25
2018-10-07T15:15:44.799Z,3.56
2018-10-07T15:16:45.243Z,5.22
2018-10-07T15:17:45.516Z,5.50
2018-10-07T15:18:45.816Z,4.02
2018-10-07T15:19:46.083Z,4.68
2018-10-07T15:20:46.363Z,4.38
2018-10-07T15:21:46.628Z,5.28
2018-10-07T15:22:47.041Z,3.01
2018-10-07T15:23:47.382Z,3.79
2018-10-07T15:24:47.600Z,4.72
2018-10-07T15:25:47.901Z,2.45
2018-10-07T15:26:48.456Z,6.04
2018-10-07T15:27:48.675Z,4.10
2018-10-07T15:28:48.772Z,5.98
2018-10-07T15:29:48.933Z,5.69
2018-10-07T15:30:49.059Z,4.64
2018-10-07T15:31:49.199Z,5.07
2018-10-07T15:32:49.388Z,4.48
2018-10-07T15:33:49.507Z,2.25
2018-10-07T15:34:49.641Z,3.93
2018-10-07T15:35:49.893Z,2.90
2018-10-07T15:36:49.970Z,1.90
2018-10-07T15:37:50.116Z,3.52
2018-10-07T15:38:50.263Z,4.75
2018-10-07T15:39:50.478Z,3.26
2018-10-07T15:40:50.714Z,2.54
2018-10-07T15:41:50.884Z,4.88
2018-10-07T15:42:50.995Z,4.45
2018-10-07T15:43:51.049Z,3.94
2018-10-07T15:44:51.166Z,2.81
2018-10-07T15:45:51.279Z,2.68
2018-10-07T15:46:51.443Z,4.21
2018-10-07T15:47:51.568Z,2.62
2018-10-07T15:48:51.661Z,2.37
2018-10-07T15:49:51.836Z,2.44
2018-10-07T15:50:51.939Z,4.02
2018-10-07T15:51:52.069Z,5.62
2018-10-07T15:52:52.184Z,4.34
2018-10-07T15:53:52.283Z,4.73
2018-10-07T15:54:52.423Z,4.23
2018-10-07T15:55:52.575Z,4.14
2018-10-07T15:56:52.656Z,7.51
2018-10-07T15:57:52.693Z,3.80
2018-10-07T15:58:52.755Z,4.84
2018-10-07T15:59:52.832Z,3.82
2018-10-07T16:00:52.939Z,4.21
2018-10-07T16:01:53.001Z,4.90
2018-10-07T16:02:53.121Z,6.75
2018-10-07T16:03:53.230Z,5.54
2018-10-07T16:04:53.310Z,5.81
2018-10-07T16:05:53.484Z,3.68
2018-10-07T16:06:53.709Z,5.06
2018-10-07T16:07:53.811Z,4.43
2018-10-07T16:08:53.991Z,2.81
2018-10-07T16:09:53.910Z,4.37
2018-10-07T16:10:54.315Z,2.92
2018-10-07T16:11:54.774Z,4.36
2018-10-07T16:12:55.179Z,6.12
2018-10-07T16:13:55.455Z,4.23
2018-10-07T16:14:56.192Z,3.35
2018-10-07T16:15:55.907Z,4.88
2018-10-07T16:16:56.230Z,4.75
2018-10-07T16:17:56.539Z,4.37
2018-10-07T16:18:56.915Z,2.86
2018-10-07T16:19:57.429Z,1.95
2018-10-07T16:20:57.236Z,2.60
2018-10-07T16:21:57.571Z,3.58
2018-10-07T16:22:57.891Z,4.63
2018-10-07T16:23:58.171Z,3.34
2018-10-07T16:24:58.461Z,5.66
2018-10-07T16:25:59.134Z,3.15
2018-10-07T16:26:58.834Z,3.72
2018-10-07T16:27:59.222Z,3.57
2018-10-07T16:28:59.519Z,2.86
2018-10-07T16:29:59.786Z,2.81
2018-10-07T16:31:00.260Z,3.01
2018-10-07T16:32:00.543Z,3.58
2018-10-07T16:33:01.009Z,4.28
2018-10-07T16:34:01.540Z,4.00
2018-10-07T16:35:01.560Z,3.08
2018-10-07T16:36:01.646Z,3.87
2018-10-07T16:37:01.458Z,4.34
2018-10-07T16:38:01.960Z,4.73
2018-10-07T16:39:02.367Z,4.21
2018-10-07T16:40:02.737Z,3.69
2018-10-07T16:41:02.831Z,4.10
2018-10-07T16:42:02.760Z,4.30
2018-10-07T16:43:03.421Z,2.44
2018-10-07T16:44:03.706Z,3.58
2018-10-07T16:45:03.973Z,2.06
2018-10-07T16:46:04.093Z,3.17
2018-10-07T16:47:04.309Z,4.04
2018-10-07T16:48:04.433Z,4.97
2018-10-07T16:49:04.551Z,5.65
2018-10-07T16:50:04.663Z,4.49
2018-10-07T16:51:04.771Z,5.78
2018-10-07T16:52:04.937Z,3.58
2018-10-07T16:53:05.120Z,3.31
2018-10-07T16:54:05.315Z,4.40
2018-10-07T16:55:05.474Z,3.97
2018-10-07T16:56:05.625Z,4.24
2018-10-07T16:57:09.975Z,3.45
2018-10-07T16:58:06.120Z,3.54
2018-10-07T16:59:06.280Z,2.89
2018-10-07T17:00:06.358Z,1.45
2018-10-07T17:01:06.465Z,2.78
2018-10-07T17:02:06.571Z,4.18
2018-10-07T17:03:06.713Z,3.42
2018-10-07T17:04:06.981Z,2.37
2018-10-07T17:05:06.964Z,3.46
2018-10-07T17:06:07.068Z,3.43
2018-10-07T17:07:07.188Z,3.03
2018-10-07T17:08:07.360Z,2.31
2018-10-07T17:09:07.466Z,1.73
2018-10-07T17:10:07.684Z,3.97
2018-10-07T17:11:07.762Z,2.22
2018-10-07T17:12:07.818Z,2.99
2018-10-07T17:13:08.082Z,4.45
2018-10-07T17:14:07.964Z,5.10
2018-10-07T17:15:08.055Z,4.02
2018-10-07T17:16:08.415Z,4.34
2018-10-07T17:17:08.362Z,3.58
2018-10-07T17:18:08.978Z,2.32
2018-10-07T17:19:09.027Z,2.18
2018-10-07T17:20:08.965Z,1.62
2018-10-07T17:21:09.393Z,3.49
2018-10-07T17:22:09.928Z,1.93
2018-10-07T17:23:09.942Z,1.81
2018-10-07T17:24:10.375Z,2.90
2018-10-07T17:25:10.519Z,2.70
2018-10-07T17:26:10.449Z,4.54
2018-10-07T17:27:10.910Z,3.29
2018-10-07T17:28:11.264Z,2.53
2018-10-07T17:29:11.084Z,1.33
2018-10-07T17:30:11.365Z,1.53
2018-10-07T17:31:11.712Z,1.83
2018-10-07T17:32:12.121Z,4.44
2018-10-07T17:33:12.472Z,4.21
2018-10-07T17:34:12.752Z,3.89
2018-10-07T17:35:12.992Z,3.03
2018-10-07T17:36:13.296Z,4.39
2018-10-07T17:37:13.624Z,3.92
2018-10-07T17:38:13.904Z,4.42
2018-10-07T17:39:14.267Z,2.83
2018-10-07T17:40:14.970Z,2.34
2018-10-07T17:41:14.901Z,3.95
2018-10-07T17:42:15.167Z,4.09
2018-10-07T17:43:15.639Z,4.16
2018-10-07T17:44:15.963Z,6.90
2018-10-07T17:45:16.526Z,3.33
2018-10-07T17:46:16.336Z,4.38
2018-10-07T17:47:16.549Z,5.95
2018-10-07T17:48:16.964Z,6.47
2018-10-07T17:49:17.187Z,5.27
2018-10-07T17:50:17.779Z,4.50
2018-10-07T17:51:17.591Z,5.46
2018-10-07T17:52:17.944Z,4.28
2018-10-07T17:53:18.550Z,5.05
2018-10-07T17:54:18.722Z,3.25
2018-10-07T17:55:18.862Z,5.66
2018-10-07T17:56:19.063Z,5.16
2018-10-07T17:57:19.267Z,2.94
2018-10-07T17:58:19.399Z,2.56
2018-10-07T17:59:19.529Z,3.23
2018-10-07T18:00:19.637Z,3.38
2018-10-07T18:01:19.788Z,4.42
2018-10-07T18:02:19.942Z,4.92
2018-10-07T18:03:20.231Z,3.09
2018-10-07T18:04:20.240Z,5.76
2018-10-07T18:05:20.391Z,3.99
2018-10-07T18:06:20.506Z,3.30
2018-10-07T18:07:20.656Z,4.88
2018-10-07T18:08:20.792Z,3.40
2018-10-07T18:09:20.899Z,4.14
2018-10-07T18:10:20.987Z,3.93
2018-10-07T18:11:21.081Z,2.71
2018-10-07T18:12:21.179Z,3.55
2018-10-07T18:13:21.272Z,2.57
2018-10-07T18:14:21.453Z,3.82
2018-10-07T18:15:21.518Z,5.25
2018-10-07T18:16:21.621Z,3.06
2018-10-07T18:17:21.781Z,4.62
2018-10-07T18:18:21.927Z,6.14
2018-10-07T18:19:22.051Z,3.85
2018-10-07T18:20:22.080Z,2.11
2018-10-07T18:21:22.182Z,5.28
2018-10-07T18:22:22.520Z,2.02
2018-10-07T18:23:22.572Z,2.71
2018-10-07T18:24:22.677Z,3.56
2018-10-07T18:25:22.742Z,7.03
2018-10-07T18:26:22.798Z,2.20
2018-10-07T18:27:22.872Z,4.17
2018-10-07T18:28:22.934Z,2.41
2018-10-07T18:29:22.999Z,2.51
2018-10-07T18:30:23.053Z,3.33
2018-10-07T18:31:23.117Z,2.92
2018-10-07T18:32:23.193Z,3.91
2018-10-07T18:33:23.255Z,2.94
2018-10-07T18:34:23.477Z,2.00
2018-10-07T18:35:23.404Z,1.81
2018-10-07T18:36:23.478Z,1.65
2018-10-07T18:37:23.759Z,2.18
2018-10-07T18:38:23.879Z,4.18
2018-10-07T18:39:23.942Z,1.82
2018-10-07T18:40:24.053Z,2.12
2018-10-07T18:41:24.126Z,2.35
2018-10-07T18:42:24.118Z,2.48
2018-10-07T18:43:24.393Z,2.35
2018-10-07T18:44:24.861Z,3.94
2018-10-07T18:45:25.163Z,3.04
2018-10-07T18:46:25.467Z,2.74
2018-10-07T18:47:26.033Z,1.67
2018-10-07T18:48:26.040Z,2.06
2018-10-07T18:49:26.403Z,2.22
2018-10-07T18:50:26.697Z,2.75
2018-10-07T18:51:27.319Z,1.80
2018-10-07T18:52:27.417Z,1.32
2018-10-07T18:53:27.864Z,3.57
2018-10-07T18:54:28.182Z,2.23
2018-10-07T18:55:28.532Z,3.01
2018-10-07T18:56:28.831Z,2.30
2018-10-07T18:57:29.441Z,1.92
2018-10-07T18:58:29.220Z,2.27
2018-10-07T18:59:29.483Z,2.26
2018-10-07T19:00:29.812Z,2.97
2018-10-07T19:01:30.299Z,2.50
2018-10-07T19:02:30.733Z,2.72
2018-10-07T19:03:30.945Z,3.36
2018-10-07T19:04:31.212Z,2.63
2018-10-07T19:05:31.475Z,1.42
2018-10-07T19:06:31.754Z,2.30
2018-10-07T19:07:32.163Z,2.89
2018-10-07T19:08:32.574Z,2.40
2018-10-07T19:09:32.774Z,1.58
2018-10-07T19:10:33.263Z,2.00
2018-10-07T19:11:33.244Z,2.09
2018-10-07T19:12:33.871Z,0.92
2018-10-07T19:13:33.964Z,1.62
2018-10-07T19:14:34.193Z,2.83
2018-10-07T19:15:34.304Z,3.54
2018-10-07T19:16:34.393Z,3.02
2018-10-07T19:17:34.695Z,2.46
2018-10-07T19:18:34.830Z,3.89
2018-10-07T19:19:35.058Z,3.85
2018-10-07T19:20:35.296Z,4.40
2018-10-07T19:21:35.444Z,3.71
2018-10-07T19:22:35.579Z,2.55
2018-10-07T19:23:35.733Z,2.66
2018-10-07T19:24:35.868Z,2.40
2018-10-07T19:25:36.022Z,1.86
2018-10-07T19:26:36.071Z,2.52